createdAt,value
2023-11-24T00:01:39.657Z,100.00
2023-11-24T00:04:06.487Z,100.00
2023-11-24T00:06:33.619Z,100.00
2023-11-24T00:09:00.138Z,100.00
2023-11-24T00:11:27.448Z,100.00
2023-11-24T00:13:53.851Z,100.00
2023-11-24T00:16:20.511Z,100.00
2023-11-24T00:18:46.947Z,100.00
2023-11-24T00:21:13.877Z,100.00
2023-11-24T00:23:40.383Z,100.00
2023-11-24T00:26:07.467Z,100.00
2023-11-24T00:28:35.064Z,100.00
2023-11-24T00:31:03.565Z,100.00
2023-11-24T00:33:30.458Z,100.00
2023-11-24T00:35:56.876Z,100.00
2023-11-24T00:38:23.534Z,100.00
2023-11-24T00:40:51.130Z,100.00
2023-11-24T00:43:17.587Z,100.00
2023-11-24T00:45:44.100Z,100.00
2023-11-24T00:48:11.376Z,100.00
2023-11-24T00:50:37.864Z,100.00
2023-11-24T00:53:04.913Z,100.00
2023-11-24T00:55:32.210Z,100.00
2023-11-24T00:57:59.686Z,100.00
2023-11-24T01:00:26.141Z,100.00
2023-11-24T01:02:52.587Z,100.00
2023-11-24T01:05:20.121Z,100.00
2023-11-24T01:07:47.671Z,100.00
2023-11-24T01:10:14.066Z,100.00
2023-11-24T01:12:41.389Z,100.00
2023-11-24T01:15:09.666Z,100.00
2023-11-24T01:17:37.278Z,100.00
2023-11-24T01:20:05.189Z,100.00
2023-11-24T01:22:31.678Z,100.00
2023-11-24T01:24:58.233Z,100.00
2023-11-24T01:27:24.788Z,100.00
2023-11-24T01:29:51.226Z,100.00
2023-11-24T01:32:17.746Z,100.00
2023-11-24T01:34:44.271Z,100.00
2023-11-24T01:37:11.057Z,100.00
2023-11-24T01:39:38.217Z,100.00
2023-11-24T01:42:05.809Z,100.00
2023-11-24T01:44:32.688Z,100.00
2023-11-24T01:46:59.255Z,100.00
2023-11-24T01:49:27.208Z,100.00
2023-11-24T01:51:56.564Z,100.00
2023-11-24T01:54:27.130Z,100.00
2023-11-24T01:56:58.696Z,100.00
2023-11-24T01:59:25.178Z,100.00
2023-11-24T02:01:51.978Z,100.00
2023-11-24T02:04:18.536Z,100.00
2023-11-24T02:06:45.587Z,100.00
2023-11-24T02:09:12.253Z,100.00
2023-11-24T02:11:38.705Z,100.00
2023-11-24T02:14:07.510Z,100.00
2023-11-24T02:16:34.975Z,100.00
2023-11-24T02:19:01.519Z,100.00
2023-11-24T02:21:28.320Z,100.00
2023-11-24T02:23:54.770Z,100.00
2023-11-24T02:26:21.228Z,100.00
2023-11-24T02:28:47.573Z,100.00
2023-11-24T02:31:14.600Z,100.00
2023-11-24T02:33:42.105Z,100.00
2023-11-24T02:36:18.201Z,100.00
2023-11-24T02:38:51.158Z,100.00
2023-11-24T02:41:18.038Z,100.00
2023-11-24T02:43:45.738Z,100.00
2023-11-24T02:46:13.760Z,100.00
2023-11-24T02:48:42.287Z,100.00
2023-11-24T02:51:10.048Z,100.00
2023-11-24T02:53:40.412Z,100.00
2023-11-24T02:56:08.860Z,100.00
2023-11-24T02:58:35.563Z,100.00
2023-11-24T03:01:02.443Z,100.00
2023-11-24T03:03:31.687Z,100.00
2023-11-24T03:06:01.843Z,100.00
2023-11-24T03:08:28.303Z,100.00
2023-11-24T03:10:55.114Z,100.00
2023-11-24T03:13:21.750Z,100.00
2023-11-24T03:15:48.170Z,100.00
2023-11-24T03:18:14.589Z,100.00
2023-11-24T03:20:42.100Z,100.00
2023-11-24T03:23:08.692Z,100.00
2023-11-24T03:25:35.591Z,100.00
2023-11-24T03:28:02.398Z,100.00
2023-11-24T03:30:28.821Z,100.00
2023-11-24T03:32:55.233Z,100.00
2023-11-24T03:35:21.981Z,100.00
2023-11-24T03:37:48.336Z,100.00
2023-11-24T03:40:15.395Z,100.00
2023-11-24T03:42:41.829Z,100.00
2023-11-24T03:45:08.553Z,100.00
2023-11-24T03:47:34.998Z,100.00
2023-11-24T03:50:01.502Z,100.00
2023-11-24T03:52:28.553Z,100.00
2023-11-24T03:54:54.999Z,100.00
2023-11-24T03:57:21.600Z,100.00
2023-11-24T03:59:48.036Z,100.00
2023-11-24T04:02:14.620Z,100.00
2023-11-24T04:04:41.076Z,100.00
2023-11-24T04:07:07.476Z,99.67
2023-11-24T04:09:33.961Z,98.95
2023-11-24T04:12:00.518Z,99.44
2023-11-24T04:14:27.350Z,98.91
2023-11-24T04:16:53.915Z,98.47
2023-11-24T04:19:20.434Z,98.25
2023-11-24T04:21:46.856Z,97.79
2023-11-24T04:24:13.330Z,97.90
2023-11-24T04:26:39.793Z,97.35
2023-11-24T04:29:06.936Z,96.76
2023-11-24T04:31:33.519Z,96.53
2023-11-24T04:34:01.121Z,96.37
2023-11-24T04:36:29.619Z,96.49
2023-11-24T04:38:56.062Z,95.90
2023-11-24T04:41:22.409Z,95.13
2023-11-24T04:43:48.762Z,95.03
2023-11-24T04:46:15.425Z,94.55
2023-11-24T04:48:42.940Z,94.53
2023-11-24T04:51:09.484Z,94.89
2023-11-24T04:53:36.844Z,94.26
2023-11-24T04:56:06.497Z,94.09
2023-11-24T04:58:32.853Z,94.12
2023-11-24T05:00:59.303Z,94.50
2023-11-24T05:03:25.741Z,93.78
2023-11-24T05:05:52.161Z,93.80
2023-11-24T05:08:18.612Z,94.23
2023-11-24T05:10:44.936Z,94.31
2023-11-24T05:13:11.286Z,94.40
2023-11-24T05:15:38.224Z,93.73
2023-11-24T05:18:05.290Z,93.62
2023-11-24T05:20:31.761Z,93.05
2023-11-24T05:22:58.202Z,92.39
2023-11-24T05:25:24.676Z,92.35
2023-11-24T05:27:51.048Z,92.19
2023-11-24T05:30:17.687Z,91.77
2023-11-24T05:32:45.614Z,91.65
2023-11-24T05:35:12.126Z,91.26
2023-11-24T05:37:38.662Z,91.58
2023-11-24T05:40:08.810Z,91.47
2023-11-24T05:42:35.198Z,91.74
2023-11-24T05:45:03.164Z,91.42
2023-11-24T05:47:30.433Z,91.45
2023-11-24T05:49:57.212Z,91.36
2023-11-24T05:52:23.702Z,91.83
2023-11-24T05:54:50.096Z,91.50
2023-11-24T05:57:16.551Z,92.14
2023-11-24T05:59:43.121Z,93.04
2023-11-24T06:02:10.718Z,93.61
2023-11-24T06:04:37.249Z,95.19
2023-11-24T06:07:04.308Z,96.12
2023-11-24T06:09:30.971Z,97.36
2023-11-24T06:11:57.539Z,98.44
2023-11-24T06:14:23.985Z,99.46
2023-11-24T06:16:50.866Z,100.00
2023-11-24T06:19:17.310Z,100.00
2023-11-24T06:21:43.853Z,100.00
2023-11-24T06:24:10.328Z,99.54
2023-11-24T06:26:38.801Z,99.29
2023-11-24T06:29:05.937Z,98.25
2023-11-24T06:31:32.583Z,98.27
2023-11-24T06:34:00.199Z,98.82
2023-11-24T06:36:26.817Z,99.09
2023-11-24T06:38:53.180Z,100.00
2023-11-24T06:41:19.759Z,98.65
2023-11-24T06:43:46.407Z,97.97
2023-11-24T06:46:13.491Z,97.42
2023-11-24T06:48:40.054Z,96.91
2023-11-24T06:51:06.708Z,96.59
2023-11-24T06:53:33.150Z,96.53
2023-11-24T06:55:59.533Z,97.16
2023-11-24T06:58:26.374Z,97.04
2023-11-24T07:00:52.925Z,97.06
2023-11-24T07:03:19.431Z,96.29
2023-11-24T07:05:48.367Z,96.35
2023-11-24T07:08:17.562Z,96.71
2023-11-24T07:10:44.883Z,96.72
2023-11-24T07:13:11.308Z,97.13
2023-11-24T07:15:37.739Z,97.37
2023-11-24T07:18:04.585Z,98.16
2023-11-24T07:20:31.082Z,98.56
2023-11-24T07:22:57.436Z,97.96
2023-11-24T07:25:23.892Z,97.89
2023-11-24T07:27:51.160Z,97.58
2023-11-24T07:30:19.695Z,98.12
2023-11-24T07:32:46.080Z,98.95
2023-11-24T07:35:14.973Z,99.56
2023-11-24T07:37:41.528Z,100.00
2023-11-24T07:40:12.217Z,100.00
2023-11-24T07:42:38.746Z,100.00
2023-11-24T07:45:05.623Z,100.00
2023-11-24T07:47:32.048Z,100.00
2023-11-24T07:49:58.916Z,100.00
2023-11-24T07:52:27.222Z,100.00
2023-11-24T07:54:54.651Z,100.00
2023-11-24T07:57:21.091Z,100.00
2023-11-24T07:59:47.573Z,100.00
2023-11-24T08:02:13.960Z,100.00
2023-11-24T08:04:41.543Z,100.00
2023-11-24T08:07:08.102Z,100.00
2023-11-24T08:09:34.575Z,100.00
2023-11-24T08:12:00.987Z,100.00
2023-11-24T08:14:27.356Z,100.00
2023-11-24T08:16:53.858Z,100.00
2023-11-24T08:19:23.829Z,100.00
2023-11-24T08:21:50.401Z,100.00
2023-11-24T08:24:17.375Z,100.00
2023-11-24T08:26:44.063Z,100.00
2023-11-24T08:29:10.721Z,100.00
2023-11-24T08:31:37.125Z,100.00
2023-11-24T08:34:05.139Z,100.00
2023-11-24T08:36:32.819Z,100.00
2023-11-24T08:38:59.266Z,100.00
2023-11-24T08:41:31.218Z,100.00
2023-11-24T08:44:06.017Z,100.00
2023-11-24T08:46:32.678Z,100.00
2023-11-24T08:48:59.204Z,100.00
2023-11-24T08:51:26.557Z,100.00
2023-11-24T08:53:52.981Z,100.00
2023-11-24T08:56:19.359Z,100.00
2023-11-24T08:58:45.741Z,100.00
2023-11-24T09:01:15.482Z,100.00
2023-11-24T09:03:42.203Z,100.00
2023-11-24T09:06:08.746Z,100.00
2023-11-24T09:08:35.148Z,100.00
2023-11-24T09:11:02.598Z,100.00
2023-11-24T09:13:28.998Z,100.00
2023-11-24T09:15:55.551Z,100.00
2023-11-24T09:18:24.946Z,100.00
2023-11-24T09:20:51.525Z,100.00
2023-11-24T09:23:18.379Z,100.00
2023-11-24T09:25:45.006Z,100.00
2023-11-24T09:28:12.002Z,100.00
2023-11-24T09:30:39.772Z,100.00
2023-11-24T09:33:07.699Z,100.00
2023-11-24T09:35:34.235Z,100.00
2023-11-24T09:38:00.677Z,99.59
2023-11-24T09:40:27.242Z,98.79
2023-11-24T09:42:53.843Z,98.23
2023-11-24T09:45:23.224Z,98.48
2023-11-24T09:47:51.720Z,98.54
2023-11-24T09:50:24.994Z,97.76
2023-11-24T09:52:55.462Z,97.30
2023-11-24T09:55:25.002Z,96.97
2023-11-24T09:57:53.015Z,97.54
2023-11-24T10:00:20.901Z,96.98
2023-11-24T10:02:48.931Z,96.10
2023-11-24T10:05:22.340Z,96.41
2023-11-24T10:07:53.304Z,96.92
2023-11-24T10:10:23.350Z,96.63
2023-11-24T10:13:01.273Z,96.81
2023-11-24T10:15:28.784Z,97.37
2023-11-24T10:17:55.570Z,97.58
2023-11-24T10:20:29.478Z,97.69
2023-11-24T10:22:57.115Z,97.69
2023-11-24T10:25:26.557Z,98.50
2023-11-24T10:28:00.877Z,99.91
2023-11-24T10:30:27.489Z,100.00
2023-11-24T10:32:54.282Z,100.00
2023-11-24T10:35:20.806Z,100.00
2023-11-24T10:37:47.935Z,100.00
2023-11-24T10:40:18.789Z,100.00
2023-11-24T10:42:52.280Z,100.00
2023-11-24T10:45:22.337Z,100.00
2023-11-24T10:48:07.111Z,100.00
2023-11-24T10:50:39.655Z,100.00
2023-11-24T10:53:27.756Z,100.00
2023-11-24T10:55:55.547Z,100.00
2023-11-24T10:58:23.829Z,100.00
2023-11-24T11:00:50.800Z,99.56
2023-11-24T11:03:17.749Z,99.85
2023-11-24T11:05:54.078Z,100.00
2023-11-24T11:08:35.842Z,100.00
2023-11-24T11:11:13.263Z,100.00
2023-11-24T11:13:42.282Z,99.93
2023-11-24T11:16:11.936Z,99.37
2023-11-24T11:18:38.393Z,99.03
2023-11-24T11:21:12.392Z,98.51
2023-11-24T11:23:39.888Z,98.48
2023-11-24T11:26:08.895Z,98.12
2023-11-24T11:28:36.492Z,97.36
2023-11-24T11:31:22.229Z,96.80
2023-11-24T11:33:49.825Z,96.53
2023-11-24T11:36:16.921Z,96.20
2023-11-24T11:38:46.476Z,96.36
2023-11-24T11:41:33.512Z,96.21
2023-11-24T11:43:59.899Z,95.56
2023-11-24T11:46:26.369Z,95.24
2023-11-24T11:48:56.192Z,95.27
2023-11-24T11:51:24.680Z,95.44
2023-11-24T11:53:52.044Z,95.60
2023-11-24T11:56:19.712Z,94.06
2023-11-24T11:58:46.105Z,93.84
2023-11-24T12:01:14.872Z,93.44
2023-11-24T12:03:41.491Z,93.32
2023-11-24T12:06:08.333Z,93.15
2023-11-24T12:08:35.096Z,92.46
2023-11-24T12:11:01.553Z,91.83
2023-11-24T12:13:28.189Z,91.96
2023-11-24T12:15:55.035Z,91.66
2023-11-24T12:18:21.773Z,91.92
2023-11-24T12:20:51.961Z,93.04
2023-11-24T12:23:22.082Z,94.19
2023-11-24T12:25:48.691Z,94.36
2023-11-24T12:28:15.233Z,94.09
2023-11-24T12:30:43.759Z,94.23
2023-11-24T12:33:15.394Z,93.56
2023-11-24T12:35:56.404Z,91.64
2023-11-24T12:38:23.638Z,90.84
2023-11-24T12:40:52.477Z,89.51
2023-11-24T12:43:22.813Z,87.70
2023-11-24T12:45:51.058Z,87.01
2023-11-24T12:48:25.523Z,86.84
2023-11-24T12:50:59.640Z,86.83
2023-11-24T12:53:26.168Z,86.61
2023-11-24T12:55:52.833Z,85.28
2023-11-24T12:58:19.567Z,84.90
2023-11-24T13:00:47.581Z,85.01
2023-11-24T13:03:14.385Z,84.55
2023-11-24T13:05:40.928Z,84.71
2023-11-24T13:08:07.927Z,84.06
2023-11-24T13:10:35.655Z,83.75
2023-11-24T13:13:02.903Z,83.96
2023-11-24T13:15:29.616Z,83.84
2023-11-24T13:17:57.022Z,83.20
2023-11-24T13:20:29.224Z,82.73
2023-11-24T13:22:55.736Z,82.40
2023-11-24T13:25:30.302Z,82.96
2023-11-24T13:27:57.214Z,81.96
2023-11-24T13:30:23.707Z,82.60
2023-11-24T13:32:50.937Z,81.65
2023-11-24T13:35:17.840Z,82.25
2023-11-24T13:37:46.046Z,81.71
2023-11-24T13:40:18.386Z,81.66
2023-11-24T13:42:45.492Z,81.46
2023-11-24T13:45:14.737Z,81.27
2023-11-24T13:47:42.152Z,80.10
2023-11-24T13:50:10.398Z,79.41
2023-11-24T13:52:36.884Z,77.73
2023-11-24T13:55:06.806Z,77.34
2023-11-24T13:57:33.456Z,77.11
2023-11-24T13:59:59.980Z,76.18
2023-11-24T14:02:26.750Z,76.35
2023-11-24T14:04:55.445Z,75.92
2023-11-24T14:07:22.118Z,75.88
2023-11-24T14:09:49.763Z,75.17
2023-11-24T14:12:16.506Z,74.31
2023-11-24T14:14:44.025Z,73.41
2023-11-24T14:17:10.591Z,72.31
2023-11-24T14:19:36.966Z,72.04
2023-11-24T14:22:05.794Z,71.65
2023-11-24T14:24:33.713Z,71.80
2023-11-24T14:27:00.181Z,71.28
2023-11-24T14:29:28.889Z,71.59
2023-11-24T14:31:55.392Z,72.22
2023-11-24T14:34:21.818Z,72.48
2023-11-24T14:36:49.401Z,73.04
2023-11-24T14:39:27.126Z,74.78
2023-11-24T14:41:57.077Z,78.12
2023-11-24T14:44:24.583Z,81.32
2023-11-24T14:46:52.334Z,83.55
2023-11-24T14:49:18.975Z,85.32
2023-11-24T14:51:49.617Z,86.96
2023-11-24T14:54:17.239Z,88.47
2023-11-24T14:56:44.632Z,88.65
2023-11-24T14:59:11.929Z,89.82
2023-11-24T15:01:39.895Z,90.91
2023-11-24T15:04:17.816Z,91.35
2023-11-24T15:06:50.844Z,92.28
2023-11-24T15:09:17.422Z,93.51
2023-11-24T15:11:44.954Z,94.26
2023-11-24T15:14:15.338Z,94.43
2023-11-24T15:16:53.040Z,94.93
2023-11-24T15:19:22.134Z,95.14
2023-11-24T15:21:49.721Z,95.85
2023-11-24T15:24:16.121Z,96.38
2023-11-24T15:26:42.484Z,96.69
2023-11-24T15:29:10.959Z,96.87
2023-11-24T15:31:40.295Z,97.34
2023-11-24T15:34:06.957Z,97.78
2023-11-24T15:36:35.164Z,97.84
2023-11-24T15:39:02.666Z,98.34
2023-11-24T15:41:39.010Z,97.88
2023-11-24T15:44:07.876Z,97.73
2023-11-24T15:46:39.684Z,97.46
2023-11-24T15:49:16.686Z,97.20
2023-11-24T15:51:46.730Z,96.89
2023-11-24T15:54:14.353Z,96.11
2023-11-24T15:56:40.967Z,95.82
2023-11-24T15:59:23.563Z,96.11
2023-11-24T16:01:52.664Z,95.78
2023-11-24T16:04:21.654Z,95.62
2023-11-24T16:06:55.152Z,95.44
2023-11-24T16:09:22.733Z,94.90
2023-11-24T16:12:09.348Z,95.23
2023-11-24T16:14:38.130Z,95.06
2023-11-24T16:17:05.465Z,94.83
2023-11-24T16:19:33.420Z,94.82
2023-11-24T16:22:00.655Z,95.74
2023-11-24T16:24:30.202Z,95.91
2023-11-24T16:26:56.940Z,97.25
2023-11-24T16:29:24.562Z,97.92
2023-11-24T16:31:52.460Z,98.31
2023-11-24T16:34:26.290Z,99.55
2023-11-24T16:36:56.355Z,98.71
2023-11-24T16:39:23.664Z,98.97
2023-11-24T16:41:53.352Z,98.67
2023-11-24T16:44:19.707Z,99.46
2023-11-24T16:46:57.596Z,99.82
2023-11-24T16:49:24.248Z,100.00
2023-11-24T16:51:50.812Z,100.00
2023-11-24T16:54:17.529Z,100.00
2023-11-24T16:56:44.115Z,100.00
2023-11-24T16:59:10.466Z,100.00
2023-11-24T17:01:36.949Z,100.00
2023-11-24T17:04:03.690Z,100.00
2023-11-24T17:06:30.116Z,100.00
2023-11-24T17:08:56.543Z,100.00
2023-11-24T17:11:22.993Z,100.00
2023-11-24T17:13:49.549Z,100.00
2023-11-24T17:16:16.336Z,100.00
2023-11-24T17:18:43.054Z,100.00
2023-11-24T17:21:09.613Z,100.00
2023-11-24T17:23:41.289Z,100.00
2023-11-24T17:26:10.813Z,100.00
2023-11-24T17:28:37.984Z,100.00
2023-11-24T17:31:09.312Z,100.00
2023-11-24T17:33:40.381Z,100.00
2023-11-24T17:36:09.046Z,100.00
2023-11-24T17:38:35.660Z,100.00
2023-11-24T17:41:02.580Z,100.00
2023-11-24T17:43:30.219Z,100.00
2023-11-24T17:45:57.267Z,100.00
2023-11-24T17:48:24.505Z,100.00
2023-11-24T17:50:51.076Z,100.00
2023-11-24T17:53:17.619Z,100.00
2023-11-24T17:55:44.071Z,100.00
2023-11-24T17:58:12.050Z,100.00
2023-11-24T18:00:40.894Z,100.00
2023-11-24T18:03:08.506Z,100.00
2023-11-24T18:05:34.989Z,100.00
2023-11-24T18:08:04.086Z,100.00
2023-11-24T18:10:30.599Z,100.00
2023-11-24T18:12:57.988Z,100.00
2023-11-24T18:15:24.644Z,100.00
2023-11-24T18:17:50.989Z,100.00
2023-11-24T18:20:18.699Z,100.00
2023-11-24T18:22:45.156Z,100.00
2023-11-24T18:25:13.087Z,100.00
2023-11-24T18:27:40.047Z,100.00
2023-11-24T18:30:07.942Z,100.00
2023-11-24T18:32:34.445Z,100.00
2023-11-24T18:35:01.214Z,100.00
2023-11-24T18:37:27.628Z,100.00
2023-11-24T18:39:54.100Z,100.00
2023-11-24T18:42:20.830Z,100.00
2023-11-24T18:44:47.375Z,100.00
2023-11-24T18:47:18.860Z,100.00
2023-11-24T18:49:46.530Z,100.00
2023-11-24T18:52:13.514Z,100.00
2023-11-24T18:54:43.221Z,100.00
2023-11-24T18:57:10.560Z,100.00
2023-11-24T18:59:39.908Z,100.00
2023-11-24T19:02:06.647Z,100.00
2023-11-24T19:04:33.204Z,100.00
2023-11-24T19:07:00.067Z,100.00
2023-11-24T19:09:26.525Z,100.00
2023-11-24T19:11:52.926Z,100.00
2023-11-24T19:14:19.359Z,100.00
2023-11-24T19:16:46.811Z,100.00
2023-11-24T19:19:14.324Z,100.00
2023-11-24T19:21:41.253Z,100.00
2023-11-24T19:24:08.438Z,100.00
2023-11-24T19:26:37.354Z,100.00
2023-11-24T19:29:08.704Z,100.00
2023-11-24T19:31:38.155Z,100.00
2023-11-24T19:34:06.959Z,100.00
2023-11-24T19:36:33.571Z,100.00
2023-11-24T19:39:01.098Z,100.00
2023-11-24T19:41:27.642Z,100.00
2023-11-24T19:43:54.117Z,100.00
2023-11-24T19:46:22.421Z,100.00
2023-11-24T19:48:51.651Z,100.00
2023-11-24T19:51:18.645Z,100.00
2023-11-24T19:53:47.483Z,100.00
2023-11-24T19:56:15.507Z,100.00
2023-11-24T19:58:43.485Z,100.00
2023-11-24T20:01:09.929Z,100.00
2023-11-24T20:03:38.998Z,100.00
2023-11-24T20:06:07.337Z,100.00
2023-11-24T20:08:34.166Z,100.00
2023-11-24T20:11:00.524Z,100.00
2023-11-24T20:13:26.951Z,100.00
2023-11-24T20:15:53.787Z,100.00
2023-11-24T20:18:20.211Z,100.00
2023-11-24T20:20:47.714Z,100.00
2023-11-24T20:23:14.436Z,100.00
2023-11-24T20:25:40.794Z,100.00
2023-11-24T20:28:10.073Z,100.00
2023-11-24T20:30:36.465Z,100.00
2023-11-24T20:33:02.983Z,100.00
2023-11-24T20:35:30.477Z,100.00
2023-11-24T20:37:57.176Z,100.00
2023-11-24T20:40:25.743Z,100.00
2023-11-24T20:42:52.140Z,100.00
2023-11-24T20:45:18.513Z,100.00
2023-11-24T20:47:44.907Z,100.00
2023-11-24T20:50:11.861Z,100.00
2023-11-24T20:52:38.362Z,100.00
2023-11-24T20:55:05.474Z,100.00
2023-11-24T20:57:31.963Z,100.00
2023-11-24T20:59:58.438Z,100.00
2023-11-24T21:02:24.898Z,100.00
2023-11-24T21:04:51.615Z,100.00
2023-11-24T21:07:20.008Z,100.00
2023-11-24T21:09:46.655Z,100.00
2023-11-24T21:12:13.607Z,100.00
2023-11-24T21:14:40.064Z,100.00
2023-11-24T21:17:06.589Z,100.00
2023-11-24T21:19:33.015Z,100.00
2023-11-24T21:21:59.363Z,100.00
2023-11-24T21:24:25.768Z,100.00
2023-11-24T21:26:52.191Z,100.00
2023-11-24T21:29:18.524Z,100.00
2023-11-24T21:31:45.211Z,100.00
2023-11-24T21:34:12.652Z,100.00
2023-11-24T21:36:39.506Z,100.00
2023-11-24T21:39:06.299Z,100.00
2023-11-24T21:41:34.618Z,100.00
2023-11-24T21:44:01.279Z,100.00
2023-11-24T21:46:27.832Z,100.00
2023-11-24T21:48:54.523Z,100.00
2023-11-24T21:51:20.895Z,100.00
2023-11-24T21:53:47.406Z,100.00
2023-11-24T21:56:14.906Z,100.00
2023-11-24T21:58:41.565Z,100.00
2023-11-24T22:01:08.001Z,100.00
2023-11-24T22:03:34.803Z,100.00
2023-11-24T22:06:01.315Z,100.00
2023-11-24T22:08:27.697Z,100.00
2023-11-24T22:10:54.305Z,100.00
2023-11-24T22:13:20.968Z,100.00
2023-11-24T22:15:50.350Z,100.00
2023-11-24T22:18:17.948Z,100.00
2023-11-24T22:20:44.373Z,100.00
2023-11-24T22:23:10.797Z,100.00
2023-11-24T22:25:37.957Z,100.00
2023-11-24T22:28:04.761Z,100.00
2023-11-24T22:30:31.215Z,100.00
2023-11-24T22:32:57.778Z,100.00
2023-11-24T22:35:24.948Z,100.00
2023-11-24T22:37:51.357Z,100.00
2023-11-24T22:40:18.901Z,100.00
2023-11-24T22:42:46.353Z,100.00
2023-11-24T22:45:13.023Z,100.00
2023-11-24T22:47:42.567Z,100.00
2023-11-24T22:50:11.021Z,100.00
2023-11-24T22:52:38.197Z,100.00
2023-11-24T22:55:06.530Z,100.00
2023-11-24T22:57:36.712Z,100.00
2023-11-24T23:00:06.831Z,100.00
2023-11-24T23:02:34.416Z,100.00
2023-11-24T23:05:00.861Z,100.00
2023-11-24T23:07:27.571Z,100.00
2023-11-24T23:09:53.992Z,100.00
2023-11-24T23:12:20.655Z,100.00
2023-11-24T23:14:47.091Z,100.00
2023-11-24T23:17:13.427Z,100.00
2023-11-24T23:19:41.669Z,100.00
2023-11-24T23:22:09.737Z,100.00
2023-11-24T23:24:36.731Z,100.00
2023-11-24T23:27:07.936Z,100.00
2023-11-24T23:29:34.865Z,100.00
2023-11-24T23:32:01.442Z,100.00
2023-11-24T23:34:28.224Z,100.00
2023-11-24T23:36:54.803Z,100.00
2023-11-24T23:39:21.174Z,100.00
2023-11-24T23:41:48.113Z,100.00
2023-11-24T23:44:15.909Z,100.00
2023-11-24T23:46:42.815Z,100.00
2023-11-24T23:49:09.952Z,100.00
2023-11-24T23:51:36.549Z,100.00
2023-11-24T23:54:04.099Z,100.00
2023-11-24T23:56:30.517Z,100.00
2023-11-24T23:58:56.981Z,100.00
